sensor_id;sensor_type;location;lat;lon;timestamp;pressure;altitude;pressure_sealevel;temperature;humidity
16613;BME280;8419;52.358;9.752;2024-01-27T00:00:51;102373.00;;;13.94;47.48
16613;BME280;8419;52.358;9.752;2024-01-27T00:03:37;102373.00;;;13.92;47.41
16613;BME280;8419;52.358;9.752;2024-01-27T00:06:22;102391.00;;;13.95;47.27
16613;BME280;8419;52.358;9.752;2024-01-27T00:09:08;102387.00;;;13.93;47.18
16613;BME280;8419;52.358;9.752;2024-01-27T00:11:54;102383.00;;;13.96;47.33
16613;BME280;8419;52.358;9.752;2024-01-27T00:14:40;102393.00;;;14.04;47.33
16613;BME280;8419;52.358;9.752;2024-01-27T00:17:25;102401.00;;;14.06;47.32
16613;BME280;8419;52.358;9.752;2024-01-27T00:20:13;102415.00;;;14.09;47.24
16613;BME280;8419;52.358;9.752;2024-01-27T00:22:58;102424.00;;;14.05;47.27
16613;BME280;8419;52.358;9.752;2024-01-27T00:25:43;102417.00;;;14.04;47.26
16613;BME280;8419;52.358;9.752;2024-01-27T00:28:29;102413.00;;;14.02;47.18
16613;BME280;8419;52.358;9.752;2024-01-27T00:31:14;102415.00;;;14.03;47.17
16613;BME280;8419;52.358;9.752;2024-01-27T00:34:00;102412.00;;;14.07;47.12
16613;BME280;8419;52.358;9.752;2024-01-27T00:36:45;102418.00;;;14.06;46.89
16613;BME280;8419;52.358;9.752;2024-01-27T00:39:34;102413.00;;;14.05;46.80
16613;BME280;8419;52.358;9.752;2024-01-27T00:42:19;102428.00;;;14.04;46.96
16613;BME280;8419;52.358;9.752;2024-01-27T00:45:09;102428.00;;;14.06;47.02
16613;BME280;8419;52.358;9.752;2024-01-27T00:47:55;102413.00;;;14.06;46.98
16613;BME280;8419;52.358;9.752;2024-01-27T00:50:40;102411.00;;;14.13;46.74
16613;BME280;8419;52.358;9.752;2024-01-27T00:53:26;102419.00;;;14.18;46.71
16613;BME280;8419;52.358;9.752;2024-01-27T00:56:11;102420.00;;;14.21;46.80
16613;BME280;8419;52.358;9.752;2024-01-27T00:58:57;102426.00;;;14.20;47.16
16613;BME280;8419;52.358;9.752;2024-01-27T01:01:42;102428.00;;;14.21;46.65
16613;BME280;8419;52.358;9.752;2024-01-27T01:04:28;102434.00;;;14.20;46.98
16613;BME280;8419;52.358;9.752;2024-01-27T01:07:13;102427.00;;;14.14;46.92
16613;BME280;8419;52.358;9.752;2024-01-27T01:10:01;102435.00;;;14.05;47.36
16613;BME280;8419;52.358;9.752;2024-01-27T01:12:47;102441.00;;;13.93;47.53
16613;BME280;8419;52.358;9.752;2024-01-27T01:15:32;102431.00;;;13.79;47.81
16613;BME280;8419;52.358;9.752;2024-01-27T01:18:17;102439.00;;;13.70;47.70
16613;BME280;8419;52.358;9.752;2024-01-27T01:21:06;102437.00;;;13.57;48.12
16613;BME280;8419;52.358;9.752;2024-01-27T01:23:51;102426.00;;;13.47;48.30
16613;BME280;8419;52.358;9.752;2024-01-27T01:26:37;102438.00;;;13.40;48.36
16613;BME280;8419;52.358;9.752;2024-01-27T01:29:22;102439.00;;;13.30;48.49
16613;BME280;8419;52.358;9.752;2024-01-27T01:32:08;102446.00;;;13.20;48.56
16613;BME280;8419;52.358;9.752;2024-01-27T01:34:53;102452.00;;;13.13;48.54
16613;BME280;8419;52.358;9.752;2024-01-27T01:37:39;102460.00;;;13.08;48.62
16613;BME280;8419;52.358;9.752;2024-01-27T01:40:24;102461.00;;;12.99;48.60
16613;BME280;8419;52.358;9.752;2024-01-27T01:43:12;102468.00;;;12.88;48.83
16613;BME280;8419;52.358;9.752;2024-01-27T01:45:57;102463.00;;;12.85;48.95
16613;BME280;8419;52.358;9.752;2024-01-27T01:48:43;102464.00;;;12.83;48.95
16613;BME280;8419;52.358;9.752;2024-01-27T01:51:29;102468.00;;;12.73;48.96
16613;BME280;8419;52.358;9.752;2024-01-27T01:54:18;102467.00;;;12.69;48.96
16613;BME280;8419;52.358;9.752;2024-01-27T01:57:05;102468.00;;;12.60;49.04
16613;BME280;8419;52.358;9.752;2024-01-27T01:59:50;102460.00;;;12.65;48.91
16613;BME280;8419;52.358;9.752;2024-01-27T02:02:36;102459.00;;;12.65;49.00
16613;BME280;8419;52.358;9.752;2024-01-27T02:05:21;102462.00;;;12.61;49.17
16613;BME280;8419;52.358;9.752;2024-01-27T02:08:07;102471.00;;;12.53;49.36
16613;BME280;8419;52.358;9.752;2024-01-27T02:10:54;102471.00;;;12.48;49.23
16613;BME280;8419;52.358;9.752;2024-01-27T02:13:39;102476.00;;;12.54;49.18
16613;BME280;8419;52.358;9.752;2024-01-27T02:16:25;102478.00;;;12.51;49.27
16613;BME280;8419;52.358;9.752;2024-01-27T02:19:12;102464.00;;;12.49;49.31
16613;BME280;8419;52.358;9.752;2024-01-27T02:21:58;102472.00;;;12.52;49.09
16613;BME280;8419;52.358;9.752;2024-01-27T02:24:43;102466.00;;;12.48;49.13
16613;BME280;8419;52.358;9.752;2024-01-27T02:27:29;102474.00;;;12.51;48.88
16613;BME280;8419;52.358;9.752;2024-01-27T02:30:14;102468.00;;;12.48;49.08
16613;BME280;8419;52.358;9.752;2024-01-27T02:33:02;102466.00;;;12.50;48.84
16613;BME280;8419;52.358;9.752;2024-01-27T02:35:47;102469.00;;;12.49;48.98
16613;BME280;8419;52.358;9.752;2024-01-27T02:38:33;102467.00;;;12.48;49.03
16613;BME280;8419;52.358;9.752;2024-01-27T02:41:18;102474.00;;;12.45;49.27
16613;BME280;8419;52.358;9.752;2024-01-27T02:44:04;102469.00;;;12.46;49.21
16613;BME280;8419;52.358;9.752;2024-01-27T02:46:50;102472.00;;;12.44;49.20
16613;BME280;8419;52.358;9.752;2024-01-27T02:49:35;102466.00;;;12.47;49.08
16613;BME280;8419;52.358;9.752;2024-01-27T02:52:20;102477.00;;;12.46;49.15
16613;BME280;8419;52.358;9.752;2024-01-27T02:55:07;102478.00;;;12.45;49.22
16613;BME280;8419;52.358;9.752;2024-01-27T02:57:52;102477.00;;;12.41;49.43
16613;BME280;8419;52.358;9.752;2024-01-27T03:00:38;102471.00;;;12.40;49.44
16613;BME280;8419;52.358;9.752;2024-01-27T03:03:23;102472.00;;;12.38;49.42
16613;BME280;8419;52.358;9.752;2024-01-27T03:06:08;102475.00;;;12.35;49.47
16613;BME280;8419;52.358;9.752;2024-01-27T03:08:54;102499.00;;;12.35;49.53
16613;BME280;8419;52.358;9.752;2024-01-27T03:11:40;102501.00;;;12.38;49.50
16613;BME280;8419;52.358;9.752;2024-01-27T03:14:27;102494.00;;;12.38;49.35
16613;BME280;8419;52.358;9.752;2024-01-27T03:17:12;102499.00;;;12.37;49.36
16613;BME280;8419;52.358;9.752;2024-01-27T03:19:57;102508.00;;;12.39;49.39
16613;BME280;8419;52.358;9.752;2024-01-27T03:22:43;102514.00;;;12.35;49.28
16613;BME280;8419;52.358;9.752;2024-01-27T03:25:29;102518.00;;;12.37;49.36
16613;BME280;8419;52.358;9.752;2024-01-27T03:28:14;102509.00;;;12.35;49.22
16613;BME280;8419;52.358;9.752;2024-01-27T03:31:00;102524.00;;;12.39;49.13
16613;BME280;8419;52.358;9.752;2024-01-27T03:33:46;102515.00;;;12.35;49.19
16613;BME280;8419;52.358;9.752;2024-01-27T03:36:32;102521.00;;;12.36;49.26
16613;BME280;8419;52.358;9.752;2024-01-27T03:39:17;102528.00;;;12.35;49.22
16613;BME280;8419;52.358;9.752;2024-01-27T03:42:03;102513.00;;;12.34;49.14
16613;BME280;8419;52.358;9.752;2024-01-27T03:44:50;102536.00;;;12.32;49.36
16613;BME280;8419;52.358;9.752;2024-01-27T03:47:36;102537.00;;;12.28;49.50
16613;BME280;8419;52.358;9.752;2024-01-27T03:50:21;102539.00;;;12.25;49.51
16613;BME280;8419;52.358;9.752;2024-01-27T03:53:07;102537.00;;;12.29;49.37
16613;BME280;8419;52.358;9.752;2024-01-27T03:55:52;102541.00;;;12.27;49.42
16613;BME280;8419;52.358;9.752;2024-01-27T03:58:38;102547.00;;;12.26;49.39
16613;BME280;8419;52.358;9.752;2024-01-27T04:01:28;102534.00;;;12.25;49.31
16613;BME280;8419;52.358;9.752;2024-01-27T04:04:13;102537.00;;;12.25;49.30
16613;BME280;8419;52.358;9.752;2024-01-27T04:07:00;102538.00;;;12.26;49.38
16613;BME280;8419;52.358;9.752;2024-01-27T04:09:46;102539.00;;;12.25;49.41
16613;BME280;8419;52.358;9.752;2024-01-27T04:12:32;102544.00;;;12.18;49.65
16613;BME280;8419;52.358;9.752;2024-01-27T04:15:19;102546.00;;;12.19;49.56
16613;BME280;8419;52.358;9.752;2024-01-27T04:18:08;102558.00;;;12.21;49.40
16613;BME280;8419;52.358;9.752;2024-01-27T04:20:56;102558.00;;;12.23;49.29
16613;BME280;8419;52.358;9.752;2024-01-27T04:23:42;102554.00;;;12.15;49.53
16613;BME280;8419;52.358;9.752;2024-01-27T04:26:28;102549.00;;;12.16;49.52
16613;BME280;8419;52.358;9.752;2024-01-27T04:29:13;102555.00;;;12.18;49.49
16613;BME280;8419;52.358;9.752;2024-01-27T04:32:00;102554.00;;;12.23;49.24
16613;BME280;8419;52.358;9.752;2024-01-27T04:34:48;102556.00;;;12.14;49.32
16613;BME280;8419;52.358;9.752;2024-01-27T04:37:33;102560.00;;;12.15;49.46
16613;BME280;8419;52.358;9.752;2024-01-27T04:40:20;102561.00;;;12.14;49.45
16613;BME280;8419;52.358;9.752;2024-01-27T04:43:10;102564.00;;;12.13;49.51
16613;BME280;8419;52.358;9.752;2024-01-27T04:45:55;102562.00;;;12.10;49.63
16613;BME280;8419;52.358;9.752;2024-01-27T04:48:41;102569.00;;;12.08;49.67
16613;BME280;8419;52.358;9.752;2024-01-27T04:51:26;102569.00;;;12.08;49.68
16613;BME280;8419;52.358;9.752;2024-01-27T04:54:12;102564.00;;;12.11;49.67
16613;BME280;8419;52.358;9.752;2024-01-27T04:56:58;102575.00;;;12.10;49.70
16613;BME280;8419;52.358;9.752;2024-01-27T04:59:44;102581.00;;;12.07;49.72
16613;BME280;8419;52.358;9.752;2024-01-27T05:02:30;102588.00;;;12.04;49.87
16613;BME280;8419;52.358;9.752;2024-01-27T05:05:15;102590.00;;;12.03;49.83
16613;BME280;8419;52.358;9.752;2024-01-27T05:08:01;102593.00;;;11.99;49.91
16613;BME280;8419;52.358;9.752;2024-01-27T05:10:46;102593.00;;;12.02;49.77
16613;BME280;8419;52.358;9.752;2024-01-27T05:13:32;102598.00;;;12.03;49.62
16613;BME280;8419;52.358;9.752;2024-01-27T05:16:17;102598.00;;;12.02;49.63
16613;BME280;8419;52.358;9.752;2024-01-27T05:19:03;102599.00;;;11.98;49.76
16613;BME280;8419;52.358;9.752;2024-01-27T05:21:48;102598.00;;;11.97;49.75
16613;BME280;8419;52.358;9.752;2024-01-27T05:24:34;102597.00;;;11.92;49.87
16613;BME280;8419;52.358;9.752;2024-01-27T05:27:20;102606.00;;;11.92;49.96
16613;BME280;8419;52.358;9.752;2024-01-27T05:30:12;102609.00;;;11.90;50.01
16613;BME280;8419;52.358;9.752;2024-01-27T05:32:58;102617.00;;;11.93;50.01
16613;BME280;8419;52.358;9.752;2024-01-27T05:35:43;102617.00;;;11.90;50.10
16613;BME280;8419;52.358;9.752;2024-01-27T05:38:29;102619.00;;;11.88;50.16
16613;BME280;8419;52.358;9.752;2024-01-27T05:41:16;102618.00;;;11.87;50.20
16613;BME280;8419;52.358;9.752;2024-01-27T05:44:01;102614.00;;;11.87;50.24
16613;BME280;8419;52.358;9.752;2024-01-27T05:46:47;102613.00;;;11.87;50.30
16613;BME280;8419;52.358;9.752;2024-01-27T05:49:33;102616.00;;;11.88;50.25
16613;BME280;8419;52.358;9.752;2024-01-27T05:52:18;102616.00;;;11.88;50.34
16613;BME280;8419;52.358;9.752;2024-01-27T05:55:05;102616.00;;;11.86;50.34
16613;BME280;8419;52.358;9.752;2024-01-27T05:57:51;102615.00;;;11.84;50.42
16613;BME280;8419;52.358;9.752;2024-01-27T06:00:37;102618.00;;;11.86;50.40
16613;BME280;8419;52.358;9.752;2024-01-27T06:03:22;102616.00;;;11.74;50.71
16613;BME280;8419;52.358;9.752;2024-01-27T06:06:08;102629.00;;;11.81;50.57
16613;BME280;8419;52.358;9.752;2024-01-27T06:08:53;102625.00;;;11.80;50.49
16613;BME280;8419;52.358;9.752;2024-01-27T06:11:39;102632.00;;;11.80;50.53
16613;BME280;8419;52.358;9.752;2024-01-27T06:14:24;102637.00;;;11.81;50.56
16613;BME280;8419;52.358;9.752;2024-01-27T06:17:10;102635.00;;;11.85;50.51
16613;BME280;8419;52.358;9.752;2024-01-27T06:19:56;102638.00;;;11.79;50.65
16613;BME280;8419;52.358;9.752;2024-01-27T06:22:42;102652.00;;;11.79;50.67
16613;BME280;8419;52.358;9.752;2024-01-27T06:25:28;102648.00;;;11.78;50.69
16613;BME280;8419;52.358;9.752;2024-01-27T06:28:13;102646.00;;;11.76;50.76
16613;BME280;8419;52.358;9.752;2024-01-27T06:30:59;102643.00;;;11.75;50.79
16613;BME280;8419;52.358;9.752;2024-01-27T06:33:44;102644.00;;;11.81;50.71
16613;BME280;8419;52.358;9.752;2024-01-27T06:36:29;102650.00;;;11.84;50.71
16613;BME280;8419;52.358;9.752;2024-01-27T06:39:20;102660.00;;;11.87;50.67
16613;BME280;8419;52.358;9.752;2024-01-27T06:42:06;102666.00;;;11.86;50.74
16613;BME280;8419;52.358;9.752;2024-01-27T06:44:52;102663.00;;;11.78;50.91
16613;BME280;8419;52.358;9.752;2024-01-27T06:47:37;102670.00;;;11.74;51.05
16613;BME280;8419;52.358;9.752;2024-01-27T06:50:22;102670.00;;;11.74;51.18
16613;BME280;8419;52.358;9.752;2024-01-27T06:53:08;102681.00;;;11.73;51.16
16613;BME280;8419;52.358;9.752;2024-01-27T06:55:59;102688.00;;;11.72;51.18
16613;BME280;8419;52.358;9.752;2024-01-27T06:58:45;102689.00;;;11.76;51.09
16613;BME280;8419;52.358;9.752;2024-01-27T07:01:30;102696.00;;;11.81;51.00
16613;BME280;8419;52.358;9.752;2024-01-27T07:04:16;102698.00;;;11.85;51.01
16613;BME280;8419;52.358;9.752;2024-01-27T07:07:04;102702.00;;;11.84;51.06
16613;BME280;8419;52.358;9.752;2024-01-27T07:09:49;102695.00;;;11.87;51.07
16613;BME280;8419;52.358;9.752;2024-01-27T07:12:35;102697.00;;;11.83;51.07
16613;BME280;8419;52.358;9.752;2024-01-27T07:15:21;102696.00;;;11.84;50.99
16613;BME280;8419;52.358;9.752;2024-01-27T07:18:09;102704.00;;;11.81;51.03
16613;BME280;8419;52.358;9.752;2024-01-27T07:20:55;102704.00;;;11.85;51.08
16613;BME280;8419;52.358;9.752;2024-01-27T07:23:44;102705.00;;;11.86;51.10
16613;BME280;8419;52.358;9.752;2024-01-27T07:26:30;102698.00;;;11.85;51.10
16613;BME280;8419;52.358;9.752;2024-01-27T07:29:17;102702.00;;;11.88;51.04
16613;BME280;8419;52.358;9.752;2024-01-27T07:32:03;102701.00;;;11.92;50.97
16613;BME280;8419;52.358;9.752;2024-01-27T07:34:48;102697.00;;;11.95;50.85
16613;BME280;8419;52.358;9.752;2024-01-27T07:37:34;102709.00;;;11.97;50.82
16613;BME280;8419;52.358;9.752;2024-01-27T07:40:19;102710.00;;;11.97;50.93
16613;BME280;8419;52.358;9.752;2024-01-27T07:43:04;102712.00;;;11.82;51.37
16613;BME280;8419;52.358;9.752;2024-01-27T07:45:50;102719.00;;;11.81;51.50
16613;BME280;8419;52.358;9.752;2024-01-27T07:48:38;102721.00;;;11.83;51.47
16613;BME280;8419;52.358;9.752;2024-01-27T07:51:23;102723.00;;;11.84;51.47
16613;BME280;8419;52.358;9.752;2024-01-27T07:54:09;102719.00;;;11.85;51.48
16613;BME280;8419;52.358;9.752;2024-01-27T07:56:54;102743.00;;;11.86;51.46
16613;BME280;8419;52.358;9.752;2024-01-27T07:59:39;102744.00;;;11.87;51.41
16613;BME280;8419;52.358;9.752;2024-01-27T08:02:25;102741.00;;;11.91;51.36
16613;BME280;8419;52.358;9.752;2024-01-27T08:05:11;102736.00;;;11.94;51.29
16613;BME280;8419;52.358;9.752;2024-01-27T08:07:57;102744.00;;;11.94;51.31
16613;BME280;8419;52.358;9.752;2024-01-27T08:10:43;102734.00;;;11.93;51.39
16613;BME280;8419;52.358;9.752;2024-01-27T08:13:29;102732.00;;;11.99;51.24
16613;BME280;8419;52.358;9.752;2024-01-27T08:16:15;102730.00;;;11.97;51.39
16613;BME280;8419;52.358;9.752;2024-01-27T08:19:01;102738.00;;;11.97;51.41
16613;BME280;8419;52.358;9.752;2024-01-27T08:21:47;102740.00;;;11.98;51.44
16613;BME280;8419;52.358;9.752;2024-01-27T08:24:33;102751.00;;;12.06;51.44
16613;BME280;8419;52.358;9.752;2024-01-27T08:27:18;102746.00;;;12.09;51.47
16613;BME280;8419;52.358;9.752;2024-01-27T08:30:06;102740.00;;;12.07;51.61
16613;BME280;8419;52.358;9.752;2024-01-27T08:32:52;102755.00;;;12.02;51.90
16613;BME280;8419;52.358;9.752;2024-01-27T08:35:38;102754.00;;;11.80;52.66
16613;BME280;8419;52.358;9.752;2024-01-27T08:38:23;102756.00;;;11.97;52.35
16613;BME280;8419;52.358;9.752;2024-01-27T08:41:10;102761.00;;;11.78;53.00
16613;BME280;8419;52.358;9.752;2024-01-27T08:43:56;102756.00;;;11.75;53.25
16613;BME280;8419;52.358;9.752;2024-01-27T08:46:42;102764.00;;;11.76;53.31
16613;BME280;8419;52.358;9.752;2024-01-27T08:49:28;102759.00;;;11.86;53.28
16613;BME280;8419;52.358;9.752;2024-01-27T08:52:13;102758.00;;;11.98;53.04
16613;BME280;8419;52.358;9.752;2024-01-27T08:55:00;102760.00;;;12.04;52.88
16613;BME280;8419;52.358;9.752;2024-01-27T08:57:46;102768.00;;;12.05;53.09
16613;BME280;8419;52.358;9.752;2024-01-27T09:00:31;102765.00;;;12.11;53.12
16613;BME280;8419;52.358;9.752;2024-01-27T09:03:17;102769.00;;;12.19;53.10
16613;BME280;8419;52.358;9.752;2024-01-27T09:06:05;102771.00;;;12.30;52.99
16613;BME280;8419;52.358;9.752;2024-01-27T09:08:50;102774.00;;;12.26;53.30
16613;BME280;8419;52.358;9.752;2024-01-27T09:11:37;102769.00;;;12.32;53.35
16613;BME280;8419;52.358;9.752;2024-01-27T09:14:22;102779.00;;;12.38;53.36
16613;BME280;8419;52.358;9.752;2024-01-27T09:17:07;102776.00;;;12.44;53.40
16613;BME280;8419;52.358;9.752;2024-01-27T09:19:53;102783.00;;;12.55;53.29
16613;BME280;8419;52.358;9.752;2024-01-27T09:22:39;102793.00;;;12.58;53.29
16613;BME280;8419;52.358;9.752;2024-01-27T09:25:26;102800.00;;;12.66;53.17
16613;BME280;8419;52.358;9.752;2024-01-27T09:28:13;102784.00;;;12.72;53.18
16613;BME280;8419;52.358;9.752;2024-01-27T09:30:59;102799.00;;;12.82;53.16
16613;BME280;8419;52.358;9.752;2024-01-27T09:33:44;102791.00;;;12.91;53.22
16613;BME280;8419;52.358;9.752;2024-01-27T09:36:30;102790.00;;;13.06;53.07
16613;BME280;8419;52.358;9.752;2024-01-27T09:39:15;102791.00;;;13.07;53.22
16613;BME280;8419;52.358;9.752;2024-01-27T09:42:04;102795.00;;;13.15;53.19
16613;BME280;8419;52.358;9.752;2024-01-27T09:44:54;102793.00;;;13.20;53.16
16613;BME280;8419;52.358;9.752;2024-01-27T09:47:42;102802.00;;;13.33;53.05
16613;BME280;8419;52.358;9.752;2024-01-27T09:50:29;102818.00;;;13.39;52.89
16613;BME280;8419;52.358;9.752;2024-01-27T09:53:14;102819.00;;;13.45;53.05
16613;BME280;8419;52.358;9.752;2024-01-27T09:56:01;102811.00;;;13.52;53.00
16613;BME280;8419;52.358;9.752;2024-01-27T09:58:50;102817.00;;;13.62;52.89
16613;BME280;8419;52.358;9.752;2024-01-27T10:01:36;102813.00;;;13.69;52.61
16613;BME280;8419;52.358;9.752;2024-01-27T10:04:23;102816.00;;;13.90;52.33
16613;BME280;8419;52.358;9.752;2024-01-27T10:07:12;102807.00;;;14.06;52.23
16613;BME280;8419;52.358;9.752;2024-01-27T10:09:58;102813.00;;;14.16;52.05
16613;BME280;8419;52.358;9.752;2024-01-27T10:12:45;102824.00;;;14.25;51.75
16613;BME280;8419;52.358;9.752;2024-01-27T10:15:36;102823.00;;;14.43;51.40
16613;BME280;8419;52.358;9.752;2024-01-27T10:18:21;102816.00;;;14.48;51.26
16613;BME280;8419;52.358;9.752;2024-01-27T10:21:17;102822.00;;;14.54;51.12
16613;BME280;8419;52.358;9.752;2024-01-27T10:24:04;102822.00;;;14.57;51.10
16613;BME280;8419;52.358;9.752;2024-01-27T10:26:51;102816.00;;;14.69;51.04
16613;BME280;8419;52.358;9.752;2024-01-27T10:29:52;102813.00;;;14.71;50.82
16613;BME280;8419;52.358;9.752;2024-01-27T10:32:38;102825.00;;;14.81;50.35
16613;BME280;8419;52.358;9.752;2024-01-27T10:35:24;102828.00;;;14.84;50.14
16613;BME280;8419;52.358;9.752;2024-01-27T10:38:09;102827.00;;;14.80;50.45
16613;BME280;8419;52.358;9.752;2024-01-27T10:40:55;102821.00;;;14.82;50.16
16613;BME280;8419;52.358;9.752;2024-01-27T10:43:40;102822.00;;;14.87;50.26
16613;BME280;8419;52.358;9.752;2024-01-27T10:46:29;102840.00;;;14.97;50.12
16613;BME280;8419;52.358;9.752;2024-01-27T10:49:17;102824.00;;;15.02;49.63
16613;BME280;8419;52.358;9.752;2024-01-27T10:52:08;102819.00;;;15.05;49.39
16613;BME280;8419;52.358;9.752;2024-01-27T10:55:00;102822.00;;;15.10;49.35
16613;BME280;8419;52.358;9.752;2024-01-27T10:57:48;102821.00;;;15.10;49.32
16613;BME280;8419;52.358;9.752;2024-01-27T11:00:35;102810.00;;;15.08;49.21
16613;BME280;8419;52.358;9.752;2024-01-27T11:03:22;102804.00;;;15.11;49.49
16613;BME280;8419;52.358;9.752;2024-01-27T11:06:09;102809.00;;;15.23;49.27
16613;BME280;8419;52.358;9.752;2024-01-27T11:08:57;102800.00;;;15.28;48.89
16613;BME280;8419;52.358;9.752;2024-01-27T11:11:43;102793.00;;;15.27;48.67
16613;BME280;8419;52.358;9.752;2024-01-27T11:14:29;102790.00;;;15.35;48.21
16613;BME280;8419;52.358;9.752;2024-01-27T11:17:15;102789.00;;;15.37;48.63
16613;BME280;8419;52.358;9.752;2024-01-27T11:20:01;102788.00;;;15.45;48.47
16613;BME280;8419;52.358;9.752;2024-01-27T11:22:47;102798.00;;;15.58;48.47
16613;BME280;8419;52.358;9.752;2024-01-27T11:25:34;102793.00;;;15.74;48.43
16613;BME280;8419;52.358;9.752;2024-01-27T11:28:33;102785.00;;;15.74;48.13
16613;BME280;8419;52.358;9.752;2024-01-27T11:31:19;102795.00;;;15.85;48.44
16613;BME280;8419;52.358;9.752;2024-01-27T11:34:11;102794.00;;;15.87;47.63
16613;BME280;8419;52.358;9.752;2024-01-27T11:37:10;102795.00;;;15.88;47.36
16613;BME280;8419;52.358;9.752;2024-01-27T11:40:04;102800.00;;;15.97;46.81
16613;BME280;8419;52.358;9.752;2024-01-27T11:42:56;102793.00;;;16.11;47.20
16613;BME280;8419;52.358;9.752;2024-01-27T11:45:43;102799.00;;;16.23;47.04
16613;BME280;8419;52.358;9.752;2024-01-27T11:48:28;102807.00;;;16.19;47.15
16613;BME280;8419;52.358;9.752;2024-01-27T11:51:14;102821.00;;;16.48;47.15
16613;BME280;8419;52.358;9.752;2024-01-27T11:54:00;102812.00;;;16.66;46.82
16613;BME280;8419;52.358;9.752;2024-01-27T11:56:46;102810.00;;;16.62;46.76
16613;BME280;8419;52.358;9.752;2024-01-27T11:59:31;102816.00;;;16.25;46.69
16613;BME280;8419;52.358;9.752;2024-01-27T12:02:18;102812.00;;;16.69;46.60
16613;BME280;8419;52.358;9.752;2024-01-27T12:05:05;102817.00;;;16.73;46.67
16613;BME280;8419;52.358;9.752;2024-01-27T12:07:50;102817.00;;;16.53;47.55
16613;BME280;8419;52.358;9.752;2024-01-27T12:10:36;102820.00;;;16.66;47.35
16613;BME280;8419;52.358;9.752;2024-01-27T12:13:22;102822.00;;;16.78;47.71
16613;BME280;8419;52.358;9.752;2024-01-27T12:16:08;102820.00;;;16.74;47.76
16613;BME280;8419;52.358;9.752;2024-01-27T12:18:54;102824.00;;;16.76;47.72
16613;BME280;8419;52.358;9.752;2024-01-27T12:21:47;102826.00;;;16.79;46.66
16613;BME280;8419;52.358;9.752;2024-01-27T12:24:33;102824.00;;;16.67;46.07
16613;BME280;8419;52.358;9.752;2024-01-27T12:27:19;102825.00;;;16.66;45.38
16613;BME280;8419;52.358;9.752;2024-01-27T12:30:07;102816.00;;;16.64;45.08
16613;BME280;8419;52.358;9.752;2024-01-27T12:32:53;102815.00;;;16.52;44.55
16613;BME280;8419;52.358;9.752;2024-01-27T12:35:41;102813.00;;;16.51;45.16
16613;BME280;8419;52.358;9.752;2024-01-27T12:38:27;102812.00;;;16.66;44.51
16613;BME280;8419;52.358;9.752;2024-01-27T12:41:12;102818.00;;;16.77;44.57
16613;BME280;8419;52.358;9.752;2024-01-27T12:43:58;102819.00;;;16.84;43.55
16613;BME280;8419;52.358;9.752;2024-01-27T12:46:44;102831.00;;;17.08;43.10
16613;BME280;8419;52.358;9.752;2024-01-27T12:49:30;102840.00;;;16.92;44.47
16613;BME280;8419;52.358;9.752;2024-01-27T12:52:28;102829.00;;;17.05;43.76
16613;BME280;8419;52.358;9.752;2024-01-27T12:55:14;102822.00;;;16.99;43.37
16613;BME280;8419;52.358;9.752;2024-01-27T12:57:59;102821.00;;;17.21;43.36
16613;BME280;8419;52.358;9.752;2024-01-27T13:00:44;102818.00;;;17.23;42.71
16613;BME280;8419;52.358;9.752;2024-01-27T13:03:30;102817.00;;;17.31;42.98
16613;BME280;8419;52.358;9.752;2024-01-27T13:06:15;102820.00;;;17.36;42.43
16613;BME280;8419;52.358;9.752;2024-01-27T13:09:01;102824.00;;;17.48;42.28
16613;BME280;8419;52.358;9.752;2024-01-27T13:11:46;102812.00;;;17.61;42.62
16613;BME280;8419;52.358;9.752;2024-01-27T13:14:31;102803.00;;;17.79;42.82
16613;BME280;8419;52.358;9.752;2024-01-27T13:17:16;102819.00;;;17.86;42.28
16613;BME280;8419;52.358;9.752;2024-01-27T13:20:02;102818.00;;;17.82;41.45
16613;BME280;8419;52.358;9.752;2024-01-27T13:22:52;102809.00;;;17.57;41.75
16613;BME280;8419;52.358;9.752;2024-01-27T13:25:38;102807.00;;;17.69;42.35
16613;BME280;8419;52.358;9.752;2024-01-27T13:28:24;102817.00;;;17.66;42.97
16613;BME280;8419;52.358;9.752;2024-01-27T13:31:09;102805.00;;;17.84;42.94
16613;BME280;8419;52.358;9.752;2024-01-27T13:33:55;102818.00;;;17.97;42.81
16613;BME280;8419;52.358;9.752;2024-01-27T13:36:42;102805.00;;;17.99;43.11
16613;BME280;8419;52.358;9.752;2024-01-27T13:39:28;102810.00;;;17.93;43.04
16613;BME280;8419;52.358;9.752;2024-01-27T13:42:13;102803.00;;;17.92;43.49
16613;BME280;8419;52.358;9.752;2024-01-27T13:44:58;102815.00;;;17.89;43.51
16613;BME280;8419;52.358;9.752;2024-01-27T13:47:43;102821.00;;;18.02;43.00
16613;BME280;8419;52.358;9.752;2024-01-27T13:50:30;102817.00;;;18.00;42.98
16613;BME280;8419;52.358;9.752;2024-01-27T13:53:16;102811.00;;;17.99;42.44
16613;BME280;8419;52.358;9.752;2024-01-27T13:56:02;102823.00;;;17.66;42.76
16613;BME280;8419;52.358;9.752;2024-01-27T13:58:49;102826.00;;;17.19;42.25
16613;BME280;8419;52.358;9.752;2024-01-27T14:01:35;102822.00;;;16.96;42.93
16613;BME280;8419;52.358;9.752;2024-01-27T14:04:20;102825.00;;;16.86;42.77
16613;BME280;8419;52.358;9.752;2024-01-27T14:07:06;102811.00;;;16.72;42.79
16613;BME280;8419;52.358;9.752;2024-01-27T14:09:54;102812.00;;;16.71;43.96
16613;BME280;8419;52.358;9.752;2024-01-27T14:12:40;102820.00;;;16.74;44.01
16613;BME280;8419;52.358;9.752;2024-01-27T14:15:25;102821.00;;;16.71;44.19
16613;BME280;8419;52.358;9.752;2024-01-27T14:18:11;102820.00;;;16.63;44.08
16613;BME280;8419;52.358;9.752;2024-01-27T14:21:05;102819.00;;;16.65;44.21
16613;BME280;8419;52.358;9.752;2024-01-27T14:23:51;102818.00;;;16.55;44.40
16613;BME280;8419;52.358;9.752;2024-01-27T14:26:41;102826.00;;;16.55;45.03
16613;BME280;8419;52.358;9.752;2024-01-27T14:29:26;102822.00;;;16.50;44.44
16613;BME280;8419;52.358;9.752;2024-01-27T14:32:12;102825.00;;;16.35;44.57
16613;BME280;8419;52.358;9.752;2024-01-27T14:34:57;102819.00;;;16.25;44.31
16613;BME280;8419;52.358;9.752;2024-01-27T14:37:42;102813.00;;;16.17;44.33
16613;BME280;8419;52.358;9.752;2024-01-27T14:40:27;102819.00;;;16.11;44.39